createdAt,value
2019-02-28T00:03:33.632Z,78.7
2019-02-28T00:08:29.628Z,79.1
2019-02-28T00:13:26.237Z,79.1
2019-02-28T00:18:23.037Z,78.1
2019-02-28T00:23:22.777Z,76.9
2019-02-28T00:28:18.946Z,77.5
2019-02-28T00:33:14.857Z,78.5
2019-02-28T00:38:11.388Z,78.9
2019-02-28T00:43:07.998Z,78.2
2019-02-28T00:48:04.172Z,80.2
2019-02-28T00:53:00.910Z,80
2019-02-28T00:57:56.847Z,79.9
2019-02-28T01:02:53.871Z,79.5
2019-02-28T01:07:50.195Z,79
2019-02-28T01:12:46.674Z,79.5
2019-02-28T01:17:43.222Z,79.3
2019-02-28T01:22:39.618Z,79.3
2019-02-28T01:27:36.221Z,79.2
2019-02-28T01:32:32.947Z,80.6
2019-02-28T01:37:29.273Z,80
2019-02-28T01:42:25.753Z,79.8
2019-02-28T01:47:22.457Z,79.3
2019-02-28T01:52:19.181Z,79.5
2019-02-28T01:57:15.862Z,79.4
2019-02-28T02:02:12.239Z,79.3
2019-02-28T02:07:08.299Z,79.4
2019-02-28T02:12:04.585Z,80.3
2019-02-28T02:17:02.017Z,80.9
2019-02-28T02:21:58.233Z,81.4
2019-02-28T02:26:54.798Z,81.2
2019-02-28T02:31:51.602Z,81.7
2019-02-28T02:36:54.507Z,83
2019-02-28T02:41:49.427Z,83.8
2019-02-28T02:46:46.104Z,83.2
2019-02-28T02:51:50.727Z,83.5
2019-02-28T02:56:45.803Z,82.9
2019-02-28T03:01:42.227Z,83.6
2019-02-28T03:06:38.951Z,84.2
2019-02-28T03:11:35.415Z,84.8
2019-02-28T03:16:34.743Z,81.4
2019-02-28T03:21:30.476Z,83.8
2019-02-28T03:26:26.807Z,84.2
2019-02-28T03:31:23.338Z,83.5
2019-02-28T03:36:20.032Z,84.3
2019-02-28T03:41:18.416Z,84.9
2019-02-28T03:46:14.584Z,85
2019-02-28T03:51:11.025Z,84.6
2019-02-28T03:56:07.477Z,85.5
2019-02-28T04:01:10.280Z,85.6
2019-02-28T04:06:05.198Z,85.1
2019-02-28T04:11:01.588Z,85.2
2019-02-28T04:16:09.999Z,85.2
2019-02-28T04:21:04.209Z,85.5
2019-02-28T04:26:00.453Z,86.5
2019-02-28T04:30:56.832Z,85.3
2019-02-28T04:35:56.737Z,86
2019-02-28T04:40:55.153Z,85.8
2019-02-28T04:45:51.539Z,84.7
2019-02-28T04:50:48.198Z,86.6
2019-02-28T04:55:44.635Z,86.6
2019-02-28T05:00:41.241Z,85.5
2019-02-28T05:05:37.841Z,85.8
2019-02-28T05:10:34.679Z,84.5
2019-02-28T05:15:31.116Z,85.6
2019-02-28T05:20:27.296Z,84.5
2019-02-28T05:25:23.924Z,85
2019-02-28T05:30:20.835Z,83.4
2019-02-28T05:35:17.637Z,82.8
2019-02-28T05:40:14.427Z,83.3
2019-02-28T05:45:15.543Z,83.2
2019-02-28T05:50:17.104Z,81.8
2019-02-28T05:55:12.427Z,83.6
2019-02-28T06:00:10.642Z,66
2019-02-28T06:05:12.740Z,74.7
2019-02-28T06:10:09.721Z,70.6
2019-02-28T06:15:04.270Z,72.3
2019-02-28T06:20:00.877Z,73.4
2019-02-28T06:24:57.302Z,71.7
2019-02-28T06:29:53.349Z,74
2019-02-28T06:34:49.689Z,75.2
2019-02-28T06:39:47.090Z,72.9
2019-02-28T06:44:44.415Z,69
2019-02-28T06:49:42.154Z,63.3
2019-02-28T06:54:41.163Z,69
2019-02-28T06:59:39.019Z,71.8
2019-02-28T07:04:35.435Z,74.2
2019-02-28T07:09:36.366Z,70.3
2019-02-28T07:14:32.679Z,68.9
2019-02-28T07:19:29.449Z,70.5
2019-02-28T07:24:25.695Z,69.3
2019-02-28T07:29:22.497Z,68.2
2019-02-28T07:34:23.957Z,69
2019-02-28T07:39:19.922Z,65.2
2019-02-28T07:44:22.365Z,65
2019-02-28T07:49:17.891Z,63.6
2019-02-28T07:54:16.788Z,63
2019-02-28T07:59:12.946Z,60.2
2019-02-28T08:04:09.713Z,61.3
2019-02-28T08:09:07.205Z,61.1
2019-02-28T08:14:04.019Z,59.4
2019-02-28T08:19:00.322Z,58.7
2019-02-28T08:23:57.367Z,57.6
2019-02-28T08:28:53.781Z,54.2
2019-02-28T08:33:51.886Z,54.9
2019-02-28T08:38:48.368Z,53.7
2019-02-28T08:43:48.684Z,52.3
2019-02-28T08:48:44.829Z,52.9
2019-02-28T08:53:41.833Z,49.8
2019-02-28T08:58:38.649Z,49.3
2019-02-28T09:03:35.336Z,49.7
2019-02-28T09:08:31.630Z,48.4
2019-02-28T09:13:28.564Z,47.7
2019-02-28T09:18:26.088Z,45.6
2019-02-28T09:23:23.760Z,47.9
2019-02-28T09:28:21.759Z,45
2019-02-28T09:33:23.946Z,43.8
2019-02-28T09:38:20.877Z,42.6
2019-02-28T09:43:16.441Z,43.6
2019-02-28T09:48:13.328Z,44.4
2019-02-28T09:53:09.897Z,46
2019-02-28T09:58:05.599Z,44.9
2019-02-28T10:03:02.490Z,42.3
2019-02-28T10:08:03.200Z,39.7
2019-02-28T10:12:57.740Z,43.1
2019-02-28T10:17:54.154Z,42.3
2019-02-28T10:22:50.935Z,43.1
2019-02-28T10:27:48.228Z,41.1
2019-02-28T10:32:44.480Z,41.2
2019-02-28T10:37:40.770Z,41.8
2019-02-28T10:42:41.363Z,41.5
2019-02-28T10:47:36.549Z,42
2019-02-28T10:52:32.264Z,39.5
2019-02-28T10:57:28.808Z,39.4
2019-02-28T11:02:27.206Z,37.3
2019-02-28T11:07:22.495Z,39.4
2019-02-28T11:12:23.823Z,38.4
2019-02-28T11:17:20.065Z,37.8
2019-02-28T11:22:16.889Z,40.1
2019-02-28T11:27:20.894Z,37.6
2019-02-28T11:32:19.343Z,36.6
2019-02-28T11:37:15.494Z,39
2019-02-28T11:42:11.574Z,37.8
2019-02-28T11:47:12.085Z,37.3
2019-02-28T11:52:08.262Z,36.5
2019-02-28T11:57:06.970Z,35.7
2019-02-28T12:02:03.160Z,35.1
2019-02-28T12:07:01.836Z,36.4
2019-02-28T12:11:57.163Z,36.1
2019-02-28T12:16:54.033Z,34.3
2019-02-28T12:21:50.418Z,35.3
2019-02-28T12:26:53.400Z,34
2019-02-28T12:31:49.313Z,33.8
2019-02-28T12:36:49.336Z,35.4
2019-02-28T12:41:45.864Z,34.4
2019-02-28T12:46:43.635Z,32.9
2019-02-28T12:51:40.443Z,32.4
2019-02-28T12:56:38.410Z,32.9
2019-02-28T13:01:34.640Z,33
2019-02-28T13:06:31.575Z,34.8
2019-02-28T13:11:28.034Z,32.2
2019-02-28T13:16:24.979Z,33.1
2019-02-28T13:21:22.356Z,31.3
2019-02-28T13:26:19.502Z,31.4
2019-02-28T13:31:16.484Z,32.4
2019-02-28T13:36:13.210Z,33.3
2019-02-28T13:41:10.179Z,33.5
2019-02-28T13:46:06.938Z,31.7
2019-02-28T13:51:03.464Z,33.2
2019-02-28T13:56:00.531Z,33.8
2019-02-28T14:00:57.431Z,34.7
2019-02-28T14:05:54.529Z,34.1
2019-02-28T14:10:51.064Z,34.7
2019-02-28T14:15:53.039Z,36
2019-02-28T14:20:49.404Z,36.7
2019-02-28T14:25:45.734Z,33.5
2019-02-28T14:30:42.398Z,37.8
2019-02-28T14:35:39.205Z,37.5
2019-02-28T14:40:36.079Z,37.6
2019-02-28T14:45:32.836Z,35.7
2019-02-28T14:50:29.400Z,39.7
2019-02-28T14:55:32.524Z,35
2019-02-28T15:00:28.935Z,32.6
2019-02-28T15:05:25.264Z,28.6
2019-02-28T15:10:21.959Z,28
2019-02-28T15:15:19.205Z,26.3
2019-02-28T15:20:15.636Z,27.1
2019-02-28T15:25:15.221Z,29.6
2019-02-28T15:30:11.234Z,32.2
2019-02-28T15:35:07.522Z,32.2
2019-02-28T15:40:03.807Z,33.2
2019-02-28T15:45:05.151Z,34.6
2019-02-28T15:50:00.876Z,35.3
2019-02-28T15:55:03.081Z,36.3
2019-02-28T15:59:58.899Z,35.6
2019-02-28T16:05:07.818Z,38.3
2019-02-28T16:10:02.639Z,36.8
2019-02-28T16:14:59.059Z,37.3
2019-02-28T16:19:56.984Z,40.3
2019-02-28T16:24:53.706Z,39.9
2019-02-28T16:29:56.654Z,41.7
2019-02-28T16:34:52.178Z,41
2019-02-28T16:39:50.061Z,42.6
2019-02-28T16:44:46.368Z,44
2019-02-28T16:49:45.196Z,43.2
2019-02-28T16:54:41.329Z,44
2019-02-28T16:59:38.110Z,41
2019-02-28T17:04:35.451Z,43.8
2019-02-28T17:09:31.769Z,46.1
2019-02-28T17:14:29.554Z,45
2019-02-28T17:19:32.360Z,43.2
2019-02-28T17:24:27.217Z,46
2019-02-28T17:29:26.107Z,49.4
2019-02-28T17:34:25.409Z,49.2
2019-02-28T17:39:20.863Z,52
2019-02-28T17:44:17.379Z,51.5
2019-02-28T17:49:14.901Z,49.6
2019-02-28T17:54:12.011Z,49.2
2019-02-28T17:59:08.423Z,52.8
2019-02-28T18:04:04.856Z,53.6
2019-02-28T18:09:01.929Z,52
2019-02-28T18:13:58.298Z,52.4
2019-02-28T18:18:55.500Z,49.7
2019-02-28T18:23:52.053Z,51.6
2019-02-28T18:28:48.741Z,51.5
2019-02-28T18:33:45.948Z,53.7
2019-02-28T18:38:42.185Z,53.5
2019-02-28T18:43:41.065Z,52.9
2019-02-28T18:48:38.195Z,56.9
2019-02-28T18:53:34.519Z,54.2
2019-02-28T18:58:31.259Z,55.8
2019-02-28T19:03:28.332Z,56.7
2019-02-28T19:08:25.310Z,54
2019-02-28T19:13:21.955Z,54.1
2019-02-28T19:18:18.663Z,52.6
2019-02-28T19:23:15.156Z,54.2
2019-02-28T19:28:12.213Z,54.1
2019-02-28T19:33:08.740Z,55.8
2019-02-28T19:38:05.534Z,59.5
2019-02-28T19:43:02.363Z,53.9
2019-02-28T19:47:59.388Z,53.2
2019-02-28T19:52:56.167Z,56.2
2019-02-28T19:57:52.958Z,57.5
2019-02-28T20:02:49.953Z,56.2
2019-02-28T20:07:46.188Z,52.9
2019-02-28T20:12:42.900Z,53.1
2019-02-28T20:17:39.919Z,52.5
2019-02-28T20:22:36.520Z,53.1
2019-02-28T20:27:33.033Z,53.4
2019-02-28T20:32:29.588Z,57.2
2019-02-28T20:37:26.856Z,54.3
2019-02-28T20:42:23.646Z,50
2019-02-28T20:47:20.735Z,49.1
2019-02-28T20:52:16.594Z,53.1
2019-02-28T20:57:12.997Z,56.9
2019-02-28T21:02:09.993Z,55.5
2019-02-28T21:07:06.598Z,57.8
2019-02-28T21:12:03.249Z,56.9
2019-02-28T21:16:59.174Z,59.2
2019-02-28T21:21:55.890Z,58.7
2019-02-28T21:26:53.182Z,56.2
2019-02-28T21:31:49.638Z,58
2019-02-28T21:36:46.402Z,59.2
2019-02-28T21:41:43.537Z,57.5
2019-02-28T21:46:40.205Z,58.2
2019-02-28T21:51:37.088Z,58.9
2019-02-28T21:56:34.332Z,56.9
2019-02-28T22:01:31.757Z,55.3
2019-02-28T22:06:28.140Z,56
2019-02-28T22:11:24.519Z,57.9
2019-02-28T22:16:21.608Z,60.4
2019-02-28T22:21:17.907Z,62
2019-02-28T22:26:14.899Z,62.3
2019-02-28T22:31:11.135Z,63.5
2019-02-28T22:36:07.181Z,62.9
2019-02-28T22:41:03.971Z,64.4
2019-02-28T22:46:00.846Z,64.9
2019-02-28T22:50:57.554Z,64.2
2019-02-28T22:55:54.400Z,63.3
2019-02-28T23:00:51.331Z,63.7
2019-02-28T23:05:48.376Z,64.4
2019-02-28T23:10:44.820Z,64.6
2019-02-28T23:15:41.966Z,64.6
2019-02-28T23:20:38.870Z,63.8
2019-02-28T23:25:35.024Z,66
2019-02-28T23:30:31.950Z,66.4
2019-02-28T23:35:29.363Z,67
2019-02-28T23:40:26.120Z,66.8
2019-02-28T23:45:22.689Z,65.9
2019-02-28T23:50:19.430Z,68
2019-02-28T23:55:15.793Z,67.6
